Time;durP1;ratioP1;P1;durP2;ratioP2;P2;SDS_P1;SDS_P2;PMS_P1;PMS_P2;Temp;Humidity;BMP_temperature;BMP_pressure;BME280_temperature;BME280_humidity;BME280_pressure;Samples;Min_cycle;Max_cycle;Signal;HPM_P1;HPM_P2
2022/05/22 00:01:57;;;;;;;4.50;2.42;;;;;;;16.77;69.06;99581.31;5090143;28;20027;-32
2022/05/22 00:04:24;;;;;;;4.95;2.58;;;;;;;16.96;68.59;99589.66;5109002;28;20031;-30
2022/05/22 00:06:50;;;;;;;5.53;2.90;;;;;;;16.94;68.54;99589.09;5107094;28;20031;-28
2022/05/22 00:09:16;;;;;;;6.72;2.75;;;;;;;16.62;69.82;99571.38;5090416;28;20035;-29
2022/05/22 00:11:41;;;;;;;4.88;2.75;;;;;;;16.72;70.01;99586.72;5108664;28;20037;-32
2022/05/22 00:14:11;;;;;;;4.85;2.80;;;;;;;16.97;68.36;99588.56;5108587;28;20116;-28
2022/05/22 00:16:41;;;;;;;7.20;2.90;;;;;;;16.87;69.00;99573.25;5108225;28;20023;-30
2022/05/22 00:19:10;;;;;;;6.75;2.63;;;;;;;17.10;68.42;99593.41;5090330;28;20024;-28
2022/05/22 00:21:36;;;;;;;5.18;2.63;;;;;;;17.05;67.91;99569.16;5108835;28;20027;-28
2022/05/22 00:24:01;;;;;;;4.90;3.03;;;;;;;17.10;68.12;99571.03;5108424;28;20036;-29
2022/05/22 00:26:28;;;;;;;4.53;2.75;;;;;;;17.18;67.98;99587.47;5108471;28;20673;-34
2022/05/22 00:28:53;;;;;;;5.32;2.90;;;;;;;17.51;66.56;99582.50;5108231;28;20481;-31
2022/05/22 00:31:19;;;;;;;4.20;2.90;;;;;;;17.52;67.26;99584.09;5108706;28;20107;-30
2022/05/22 00:33:44;;;;;;;5.18;3.28;;;;;;;17.42;67.05;99568.75;5108178;28;20035;-30
2022/05/22 00:36:10;;;;;;;5.28;2.92;;;;;;;17.52;67.29;99583.28;5108640;28;20410;-28
2022/05/22 00:38:36;;;;;;;4.95;2.58;;;;;;;17.45;67.57;99578.19;5108194;28;20476;-30
2022/05/22 00:41:03;;;;;;;7.25;3.20;;;;;;;17.57;66.66;99569.75;5089527;28;20075;-32
2022/05/22 00:43:38;;;;;;;5.78;3.10;;;;;;;17.56;66.14;99547.41;5108145;28;20471;-30
2022/05/22 00:46:06;;;;;;;7.60;3.35;;;;;;;17.61;65.88;99560.03;5090048;28;20035;-31
2022/05/22 00:48:34;;;;;;;5.22;2.90;;;;;;;17.57;67.13;99570.59;5089504;28;20426;-31
2022/05/22 00:51:04;;;;;;;6.33;3.40;;;;;;;17.41;67.35;99560.97;5107975;28;20024;-31
2022/05/22 00:53:33;;;;;;;5.85;3.30;;;;;;;17.63;66.39;99569.47;5106655;28;20118;-30
2022/05/22 00:56:01;;;;;;;5.47;3.45;;;;;;;17.33;68.32;99564.22;5089112;28;20601;-33
2022/05/22 00:58:30;;;;;;;4.97;3.10;;;;;;;17.20;67.82;99544.88;5089646;28;20487;-28
2022/05/22 01:00:56;;;;;;;5.57;3.30;;;;;;;17.41;68.00;99556.38;5089441;28;20032;-28
2022/05/22 01:03:27;;;;;;;6.78;3.60;;;;;;;17.47;66.99;99559.88;5089670;28;20054;-28
2022/05/22 01:06:01;;;;;;;7.00;3.50;;;;;;;17.50;66.67;99556.59;5107734;28;20061;-30
2022/05/22 01:08:27;;;;;;;8.43;3.38;;;;;;;17.71;66.77;99559.19;5107747;28;20028;-29
2022/05/22 01:10:58;;;;;;;11.82;4.70;;;;;;;17.57;65.55;99519.38;5089229;28;20032;-29
2022/05/22 01:13:38;;;;;;;6.55;3.72;;;;;;;17.48;66.31;99550.69;5107812;28;20103;-29
2022/05/22 01:16:05;;;;;;;8.88;4.18;;;;;;;17.48;66.55;99537.19;5107560;28;20057;-33
2022/05/22 01:18:44;;;;;;;6.00;3.67;;;;;;;17.40;66.65;99533.19;5089124;28;20028;-29
2022/05/22 01:21:12;;;;;;;7.50;3.75;;;;;;;17.27;67.76;99550.75;5107347;28;20153;-28
2022/05/22 01:23:38;;;;;;;7.78;3.83;;;;;;;17.22;67.65;99549.97;5107434;28;20035;-29
2022/05/22 01:26:03;;;;;;;7.47;3.78;;;;;;;17.16;68.33;99560.00;5107385;28;20034;-28
2022/05/22 01:28:29;;;;;;;8.27;3.60;;;;;;;17.25;67.75;99557.53;5107229;28;20023;-32
2022/05/22 01:30:55;;;;;;;6.60;3.95;;;;;;;17.18;68.24;99541.66;5107184;28;20038;-30
2022/05/22 01:33:20;;;;;;;6.40;4.28;;;;;;;16.55;70.48;99555.50;5105774;28;20034;-29
2022/05/22 01:35:45;;;;;;;6.78;3.30;;;;;;;16.38;70.62;99539.63;5106847;28;20034;-28
2022/05/22 01:38:11;;;;;;;6.28;3.25;;;;;;;16.28;71.70;99536.94;5106920;28;20050;-29
2022/05/22 01:40:37;;;;;;;6.93;3.45;;;;;;;16.36;70.84;99520.25;5106702;28;20055;-28
2022/05/22 01:43:03;;;;;;;7.40;4.20;;;;;;;16.52;71.21;99539.88;5088779;28;20111;-28
2022/05/22 01:45:30;;;;;;;7.15;3.47;;;;;;;16.64;70.57;99531.53;5088726;28;20032;-29
2022/05/22 01:47:55;;;;;;;10.45;3.60;;;;;;;16.55;70.52;99507.06;5106968;28;20483;-30
2022/05/22 01:50:21;;;;;;;7.90;3.80;;;;;;;16.82;69.97;99533.66;5088755;28;20130;-28
2022/05/22 01:52:47;;;;;;;7.38;3.80;;;;;;;16.27;72.04;99494.97;5106725;28;20551;-31
2022/05/22 01:55:13;;;;;;;8.85;3.60;;;;;;;16.62;70.82;99512.16;5088686;28;20123;-31
2022/05/22 01:57:40;;;;;;;5.63;3.30;;;;;;;16.76;70.69;99540.13;5088407;28;20675;-28
2022/05/22 02:00:09;;;;;;;6.25;3.60;;;;;;;16.77;70.21;99514.00;5088614;28;20172;-30
2022/05/22 02:02:34;;;;;;;7.32;3.70;;;;;;;16.62;71.47;99512.16;5106738;28;20038;-28
2022/05/22 02:05:02;;;;;;;8.80;3.72;;;;;;;16.87;70.32;99525.56;5106727;28;20035;-33
2022/05/22 02:10:11;;;;;;;5.53;3.35;;;;;;;16.29;73.95;99514.34;5107215;28;20101;-28
2022/05/22 02:12:37;;;;;;;8.50;3.20;;;;;;;16.47;72.74;99505.72;5088511;28;20027;-29
2022/05/22 02:15:02;;;;;;;8.68;3.63;;;;;;;16.47;73.33;99527.25;5106891;28;20418;-28
2022/05/22 02:17:28;;;;;;;8.30;3.38;;;;;;;16.53;73.35;99519.16;5105240;28;20031;-28
2022/05/22 02:19:53;;;;;;;6.70;3.38;;;;;;;16.74;71.31;99531.50;5107254;28;20038;-29
2022/05/22 02:22:19;;;;;;;7.60;3.50;;;;;;;16.17;73.46;99525.38;5107139;28;20034;-29
2022/05/22 02:24:50;;;;;;;10.90;4.43;;;;;;;16.33;74.20;99523.50;5106564;28;20058;-28
2022/05/22 02:27:15;;;;;;;6.85;3.38;;;;;;;16.38;73.36;99512.69;5106798;28;20027;-29
2022/05/22 02:29:41;;;;;;;8.73;3.28;;;;;;;16.20;74.88;99511.41;5106682;28;20476;-33
2022/05/22 02:32:07;;;;;;;5.80;3.13;;;;;;;16.21;74.54;99518.38;5106964;28;20030;-28
2022/05/22 02:34:33;;;;;;;7.20;3.10;;;;;;;15.79;76.11;99495.25;5106723;28;20028;-28
2022/05/22 02:36:59;;;;;;;6.07;2.97;;;;;;;16.07;74.68;99501.97;5105244;28;20507;-31
2022/05/22 02:39:25;;;;;;;7.15;3.38;;;;;;;16.31;73.12;99495.25;5106208;28;20090;-31
2022/05/22 02:41:50;;;;;;;8.20;3.50;;;;;;;16.23;74.75;99516.22;5088370;28;20114;-29
2022/05/22 02:44:15;;;;;;;7.97;3.25;;;;;;;16.20;75.33;99510.56;5105177;28;20036;-34
2022/05/22 02:46:42;;;;;;;7.22;3.20;;;;;;;16.67;72.43;99502.19;5106054;28;20538;-29
2022/05/22 02:49:08;;;;;;;5.93;3.13;;;;;;;16.41;74.51;99517.56;5088417;28;20050;-30
2022/05/22 02:51:33;;;;;;;7.30;3.53;;;;;;;16.44;74.40;99517.00;5108221;28;20116;-28
2022/05/22 02:53:59;;;;;;;7.05;3.47;;;;;;;16.55;74.11;99522.38;5110494;28;20057;-32
2022/05/22 02:56:26;;;;;;;7.00;3.65;;;;;;;16.72;73.52;99511.31;5110437;28;20123;-28
2022/05/22 02:58:52;;;;;;;7.65;3.38;;;;;;;16.60;74.04;99519.69;5110009;28;20032;-29
2022/05/22 03:01:17;;;;;;;6.22;3.60;;;;;;;16.73;73.45;99512.91;5091566;28;20031;-29
2022/05/22 03:03:43;;;;;;;7.72;3.70;;;;;;;16.37;75.25;99499.53;5110212;28;20153;-29
2022/05/22 03:08:53;;;;;;;7.43;3.85;;;;;;;16.75;73.92;99521.53;5109993;28;20035;-28
2022/05/22 03:11:18;;;;;;;8.07;3.60;;;;;;;16.72;73.78;99517.50;5110402;28;20411;-29
2022/05/22 03:13:45;;;;;;;6.57;3.95;;;;;;;16.58;74.92;99530.72;5109848;28;20031;-33
2022/05/22 03:16:10;;;;;;;6.03;3.80;;;;;;;16.50;74.14;99507.03;5091587;28;20118;-32
2022/05/22 03:18:36;;;;;;;9.57;3.78;;;;;;;16.70;73.75;99508.91;5109687;28;20459;-29
2022/05/22 03:21:02;;;;;;;7.70;3.55;;;;;;;16.69;73.91;99512.66;5108418;28;20039;-33
2022/05/22 03:23:27;;;;;;;5.95;3.50;;;;;;;16.78;75.06;99527.19;5091358;28;20081;-29
2022/05/22 03:25:53;;;;;;;6.10;3.67;;;;;;;16.93;73.50;99520.19;5109801;28;20035;-29
2022/05/22 03:28:18;;;;;;;7.75;4.10;;;;;;;17.18;72.65;99522.78;5109480;28;20076;-28
2022/05/22 03:30:44;;;;;;;7.93;3.65;;;;;;;17.21;71.95;99530.31;5109621;28;20046;-29
2022/05/22 03:33:10;;;;;;;5.93;3.88;;;;;;;17.36;70.99;99531.31;5109789;28;20084;-29
2022/05/22 03:35:35;;;;;;;7.55;4.22;;;;;;;17.29;71.85;99533.53;5109344;28;20030;-28
2022/05/22 03:38:02;;;;;;;7.15;4.00;;;;;;;17.13;72.77;99524.69;5107972;28;20027;-29
2022/05/22 03:40:28;;;;;;;8.35;3.92;;;;;;;17.40;70.91;99533.19;5109218;28;20090;-30
2022/05/22 03:42:54;;;;;;;8.30;4.05;;;;;;;17.55;70.23;99534.19;5109148;28;20043;-31
2022/05/22 03:45:19;;;;;;;7.38;4.15;;;;;;;17.45;71.34;99533.16;5109287;28;20024;-33
2022/05/22 03:47:44;;;;;;;10.68;4.53;;;;;;;17.26;72.37;99511.44;5109574;28;20038;-29
2022/05/22 03:50:12;;;;;;;11.10;4.13;;;;;;;17.34;72.74;99528.91;5109427;28;20059;-29
2022/05/22 03:52:43;;;;;;;18.38;4.57;;;;;;;17.37;72.34;99532.97;5109377;28;20023;-29
2022/05/22 03:55:10;;;;;;;10.50;4.40;;;;;;;17.07;73.65;99507.75;5090488;28;20043;-29
2022/05/22 03:57:36;;;;;;;9.43;3.97;;;;;;;17.21;73.44;99534.91;5090549;28;20032;-28
2022/05/22 04:00:08;;;;;;;8.77;3.90;;;;;;;16.90;75.57;99518.03;5107791;28;20042;-32
2022/05/22 04:02:34;;;;;;;7.30;3.78;;;;;;;17.17;73.62;99518.47;5089952;28;20112;-28
2022/05/22 04:05:00;;;;;;;9.30;4.00;;;;;;;17.06;74.21;99533.03;5109014;28;20024;-31
2022/05/22 04:07:26;;;;;;;9.48;4.13;;;;;;;17.16;73.78;99538.44;5109021;28;20042;-29
2022/05/22 04:09:51;;;;;;;11.15;3.50;;;;;;;17.04;74.63;99519.03;5108744;28;20069;-29
2022/05/22 04:12:17;;;;;;;12.52;4.72;;;;;;;17.27;73.86;99523.81;5108818;28;20024;-32
2022/05/22 04:14:43;;;;;;;8.00;3.47;;;;;;;17.24;74.36;99529.78;5109063;28;20042;-29
2022/05/22 04:17:09;;;;;;;8.45;4.00;;;;;;;17.35;73.01;99529.72;5108796;28;20035;-29
2022/05/22 04:19:36;;;;;;;13.13;4.63;;;;;;;17.33;72.10;99534.59;5107134;28;20027;-34
2022/05/22 04:22:02;;;;;;;6.50;4.10;;;;;;;17.30;73.43;99532.44;5089835;28;20050;-28
2022/05/22 04:27:12;;;;;;;8.43;4.40;;;;;;;17.41;72.08;99532.13;5108722;28;20038;-29
2022/05/22 04:29:37;;;;;;;9.38;5.53;;;;;;;17.49;72.32;99533.44;5108513;28;20032;-29
2022/05/22 04:32:04;;;;;;;11.18;5.90;;;;;;;17.47;72.53;99514.03;5108483;28;20204;-29
2022/05/22 04:34:30;;;;;;;11.20;5.07;;;;;;;17.67;73.20;99532.78;5089584;28;20487;-30
2022/05/22 04:36:56;;;;;;;7.55;4.15;;;;;;;17.55;73.08;99494.56;5107792;28;20047;-28
2022/05/22 04:39:22;;;;;;;6.47;3.85;;;;;;;17.82;72.46;99509.50;5107854;28;21117;-31
2022/05/22 04:41:47;;;;;;;9.02;3.95;;;;;;;17.67;73.00;99511.22;5108245;28;20034;-31
2022/05/22 04:44:13;;;;;;;6.25;3.67;;;;;;;17.91;72.57;99537.50;5089911;28;20031;-29
2022/05/22 04:46:38;;;;;;;7.32;3.97;;;;;;;18.07;72.20;99522.81;5107850;28;20059;-31
2022/05/22 04:49:03;;;;;;;6.00;3.95;;;;;;;18.40;70.52;99535.78;5108325;28;20038;-35
2022/05/22 04:51:29;;;;;;;7.05;4.07;;;;;;;18.56;69.91;99537.25;5107689;28;20023;-29
2022/05/22 04:53:54;;;;;;;7.53;4.15;;;;;;;18.50;70.07;99526.78;5108240;28;20027;-31
2022/05/22 04:56:21;;;;;;;8.18;4.28;;;;;;;18.60;69.10;99529.41;5107981;28;20530;-31
2022/05/22 04:58:47;;;;;;;5.75;4.40;;;;;;;19.03;68.19;99551.94;5106386;28;20407;-28
2022/05/22 05:01:13;;;;;;;8.90;4.15;;;;;;;18.96;67.04;99556.06;5108039;28;20110;-30
2022/05/22 05:03:39;;;;;;;10.52;4.05;;;;;;;18.98;66.76;99553.88;5106303;28;20552;-29
2022/05/22 05:06:04;;;;;;;8.30;3.95;;;;;;;18.95;66.38;99541.75;5107642;28;20034;-29
2022/05/22 05:08:30;;;;;;;7.80;4.35;;;;;;;19.06;67.03;99550.53;5107441;28;20055;-33
2022/05/22 05:10:57;;;;;;;6.70;4.25;;;;;;;19.01;67.38;99558.72;5108213;28;20031;-29
2022/05/22 05:13:24;;;;;;;6.28;4.32;;;;;;;18.81;68.09;99557.03;5106750;28;20063;-35
2022/05/22 05:16:08;;;;;;;6.20;3.92;;;;;;;18.99;68.64;99555.50;5089140;28;20038;-30
2022/05/22 05:18:35;;;;;;;5.10;3.80;;;;;;;19.18;67.72;99556.34;5105496;28;20042;-29
2022/05/22 05:21:07;;;;;;;7.50;4.72;;;;;;;19.35;67.96;99563.19;5107916;28;20030;-30
2022/05/22 05:23:33;;;;;;;7.40;4.35;;;;;;;19.46;68.06;99553.84;5088883;28;20028;-31
2022/05/22 05:25:59;;;;;;;8.50;4.65;;;;;;;19.46;67.63;99537.63;5089047;28;20450;-31
2022/05/22 05:28:24;;;;;;;9.82;4.78;;;;;;;19.54;67.98;99522.66;5105800;28;20595;-29
2022/05/22 05:30:50;;;;;;;10.90;4.90;;;;;;;19.64;69.16;99538.75;5107213;28;20027;-30
2022/05/22 05:33:16;;;;;;;8.30;4.63;;;;;;;19.80;69.13;99539.38;5106922;28;20085;-31
2022/05/22 05:35:42;;;;;;;7.90;5.35;;;;;;;20.12;68.53;99543.22;5107391;28;20459;-29
2022/05/22 05:38:07;;;;;;;7.35;4.68;;;;;;;20.19;68.73;99528.19;5088736;28;20047;-29
2022/05/22 05:40:34;;;;;;;8.63;5.05;;;;;;;20.51;66.81;99539.31;5107022;28;20048;-29
2022/05/22 05:42:59;;;;;;;8.05;5.47;;;;;;;20.47;67.07;99522.84;5088998;28;20080;-29
2022/05/22 05:45:25;;;;;;;8.20;5.13;;;;;;;21.06;65.01;99533.97;5106885;28;20477;-34
2022/05/22 05:47:51;;;;;;;7.60;5.15;;;;;;;21.30;63.72;99535.69;5106892;28;20028;-31
2022/05/22 05:50:21;;;;;;;7.18;4.57;;;;;;;21.18;62.77;99514.50;5105687;28;20096;-34
2022/05/22 05:52:51;;;;;;;8.82;4.97;;;;;;;21.45;63.36;99543.50;5088626;28;20028;-32
2022/05/22 05:55:17;;;;;;;7.93;5.30;;;;;;;21.38;62.53;99529.53;5107102;28;20491;-29
2022/05/22 05:57:43;;;;;;;6.35;4.57;;;;;;;21.72;61.02;99512.00;5088642;28;20027;-32
2022/05/22 06:00:11;;;;;;;8.18;4.78;;;;;;;22.17;60.07;99522.88;5105234;28;20043;-29
2022/05/22 06:02:37;;;;;;;6.03;4.57;;;;;;;22.59;58.14;99523.47;5106932;28;20031;-30
2022/05/22 06:05:03;;;;;;;9.15;4.30;;;;;;;22.91;56.41;99525.06;5106896;28;20036;-37
2022/05/22 06:07:28;;;;;;;5.70;4.03;;;;;;;23.02;52.14;99510.06;5088415;28;20020;-30
2022/05/22 06:09:54;;;;;;;8.07;4.25;;;;;;;23.40;52.30;99520.41;5106918;28;20028;-32
2022/05/22 06:12:19;;;;;;;6.57;3.65;;;;;;;23.52;50.10;99519.81;5105333;28;20457;-33
2022/05/22 06:14:46;;;;;;;10.63;3.60;;;;;;;23.83;50.42;99527.84;5106888;28;20284;-29
2022/05/22 06:17:13;;;;;;;9.40;3.80;;;;;;;23.90;47.83;99526.56;5106863;28;20032;-30
2022/05/22 06:19:54;;;;;;;8.90;3.83;;;;;;;24.18;47.36;99529.75;5088508;28;20088;-29
2022/05/22 06:22:21;;;;;;;7.35;3.00;;;;;;;24.24;44.97;99531.19;5088229;28;20127;-32
2022/05/22 06:24:47;;;;;;;6.68;3.42;;;;;;;24.16;45.83;99532.00;5088472;28;20120;-34
2022/05/22 06:27:13;;;;;;;7.70;3.42;;;;;;;24.43;45.26;99512.53;5110629;28;20035;-28
2022/05/22 06:29:40;;;;;;;4.93;2.92;;;;;;;24.73;44.80;99534.44;5109575;28;20035;-31
2022/05/22 06:32:07;;;;;;;4.80;3.80;;;;;;;24.95;44.37;99543.50;5092514;28;20027;-35
2022/05/22 06:34:34;;;;;;;6.60;3.40;;;;;;;24.85;43.85;99537.28;5110643;28;20268;-29
2022/05/22 06:37:04;;;;;;;10.45;4.25;;;;;;;24.77;43.01;99521.75;5110816;28;20099;-30
2022/05/22 06:42:15;;;;;;;6.28;3.38;;;;;;;24.92;42.00;99522.34;5110902;28;20466;-29
2022/05/22 06:44:41;;;;;;;7.78;3.28;;;;;;;25.21;43.44;99536.03;5091908;28;20058;-31
2022/05/22 06:47:07;;;;;;;5.38;2.55;;;;;;;25.32;38.97;99533.72;5110960;28;20074;-31
2022/05/22 06:49:32;;;;;;;3.95;2.47;;;;;;;25.56;38.99;99544.00;5110589;28;20031;-33
2022/05/22 06:51:58;;;;;;;4.75;2.33;;;;;;;25.63;38.39;99536.06;5110455;28;20032;-30
2022/05/22 06:54:24;;;;;;;4.25;2.20;;;;;;;25.57;38.59;99521.00;5110009;28;20027;-32
2022/05/22 06:56:49;;;;;;;9.55;2.75;;;;;;;25.62;37.34;99529.00;5108845;28;20728;-30
2022/05/22 06:59:15;;;;;;;7.60;2.63;;;;;;;25.97;39.19;99527.94;5110598;28;20538;-29
2022/05/22 07:01:40;;;;;;;8.13;3.15;;;;;;;26.17;38.16;99534.50;5091709;28;20042;-29
2022/05/22 07:04:06;;;;;;;4.18;2.40;;;;;;;26.17;36.27;99518.09;5109942;28;20045;-31
2022/05/22 07:06:31;;;;;;;3.90;2.15;;;;;;;26.12;36.76;99553.84;5109742;28;20035;-30
2022/05/22 07:08:57;;;;;;;5.15;2.83;;;;;;;26.01;38.17;99543.34;5108465;28;20481;-30
2022/05/22 07:11:41;;;;;;;5.90;2.67;;;;;;;26.28;37.91;99549.34;5091600;28;20495;-31
2022/05/22 07:14:07;;;;;;;9.68;2.92;;;;;;;26.63;36.74;99533.41;5109981;28;20061;-30
2022/05/22 07:16:38;;;;;;;6.47;2.63;;;;;;;26.91;36.12;99538.22;5091397;28;20091;-36
2022/05/22 07:19:05;;;;;;;4.95;2.30;;;;;;;26.94;34.25;99542.22;5091574;28;20110;-30
2022/05/22 07:21:31;;;;;;;3.85;2.10;;;;;;;26.94;33.29;99523.06;5091104;28;20096;-31
2022/05/22 07:23:56;;;;;;;4.60;2.35;;;;;;;27.38;33.65;99542.44;5091382;28;20027;-30
2022/05/22 07:26:24;;;;;;;4.88;2.00;;;;;;;27.58;33.26;99530.56;5109394;28;20036;-32
2022/05/22 07:28:50;;;;;;;3.72;2.00;;;;;;;27.75;32.74;99536.91;5108152;28;20035;-30
2022/05/22 07:31:18;;;;;;;3.45;2.05;;;;;;;27.93;31.66;99543.72;5109407;28;20028;-29
2022/05/22 07:33:44;;;;;;;6.57;2.13;;;;;;;28.18;32.14;99533.44;5091081;28;20131;-31
2022/05/22 07:36:10;;;;;;;4.32;1.90;;;;;;;27.62;32.08;99517.75;5090631;28;20031;-31
2022/05/22 07:38:35;;;;;;;6.85;2.53;;;;;;;27.84;32.95;99532.84;5109272;28;20443;-30
2022/05/22 07:41:01;;;;;;;3.70;2.20;;;;;;;27.37;33.35;99518.94;5090613;28;20059;-32
2022/05/22 07:43:27;;;;;;;3.42;2.17;;;;;;;27.14;32.34;99529.56;5109658;28;20089;-32
2022/05/22 07:45:53;;;;;;;4.18;2.20;;;;;;;27.11;33.74;99511.88;5107960;28;20039;-31
2022/05/22 07:48:19;;;;;;;5.63;2.08;;;;;;;26.72;33.46;99511.41;5109293;28;20024;-30
2022/05/22 07:50:45;;;;;;;3.63;2.00;;;;;;;26.61;34.25;99513.00;5090543;28;20027;-32
2022/05/22 07:53:11;;;;;;;4.85;2.08;;;;;;;26.61;35.64;99502.06;5109334;28;20042;-30
2022/05/22 07:55:36;;;;;;;4.78;2.00;;;;;;;26.26;36.02;99491.50;5109279;28;20135;-30
2022/05/22 07:58:02;;;;;;;4.70;2.40;;;;;;;26.39;36.95;99504.03;5109126;28;20410;-32
2022/05/22 08:00:27;;;;;;;7.22;2.53;;;;;;;26.71;37.37;99496.16;5108517;28;20124;-31
2022/05/22 08:02:53;;;;;;;2.95;1.83;;;;;;;26.67;34.94;99499.91;5108719;28;20139;-30
2022/05/22 08:05:20;;;;;;;5.03;1.70;;;;;;;26.79;35.19;99497.97;5108640;28;20027;-29
2022/05/22 08:07:46;;;;;;;7.13;1.93;;;;;;;27.56;36.09;99510.91;5090595;28;20031;-30
2022/05/22 08:10:14;;;;;;;4.28;1.83;;;;;;;27.48;33.30;99495.41;5108818;28;20027;-32
2022/05/22 08:12:43;;;;;;;4.97;1.90;;;;;;;27.35;33.21;99507.53;5090251;28;20750;-32
2022/05/22 08:15:11;;;;;;;8.13;1.75;;;;;;;27.63;34.31;99489.22;5090231;28;20019;-30
2022/05/22 08:17:36;;;;;;;7.85;1.45;;;;;;;28.34;32.46;99503.31;5090126;28;20538;-29
2022/05/22 08:20:12;;;;;;;3.92;1.70;;;;;;;28.52;29.34;99508.47;5108458;28;20031;-31
2022/05/22 08:22:40;;;;;;;4.22;1.42;;;;;;;28.80;27.79;99491.94;5090066;28;20024;-34
2022/05/22 08:25:07;;;;;;;5.13;1.52;;;;;;;28.99;27.08;99494.75;5089965;28;20031;-30
2022/05/22 08:27:34;;;;;;;3.15;1.38;;;;;;;29.00;26.33;99490.03;5090105;28;20039;-31
2022/05/22 08:30:00;;;;;;;8.20;1.23;;;;;;;28.76;26.19;99504.75;5106900;28;20024;-33
2022/05/22 08:32:26;;;;;;;4.10;1.42;;;;;;;29.04;26.77;99488.97;5089799;28;20488;-30
2022/05/22 08:34:54;;;;;;;3.65;1.13;;;;;;;29.35;26.92;99506.53;5089954;28;20411;-34
2022/05/22 08:37:20;;;;;;;2.33;1.65;;;;;;;29.16;26.83;99493.59;5089842;28;20388;-31
2022/05/22 08:39:46;;;;;;;3.05;1.52;;;;;;;29.00;29.76;99481.81;5106700;28;20048;-30
2022/05/22 08:42:18;;;;;;;4.30;1.92;;;;;;;28.74;30.92;99494.13;5089651;28;20039;-29
2022/05/22 08:44:47;;;;;;;8.23;2.22;;;;;;;28.61;31.79;99500.88;5089052;28;20550;-35
2022/05/22 08:47:37;;;;;;;6.15;1.65;;;;;;;28.80;32.57;99472.72;5089649;28;20027;-31
2022/05/22 08:50:09;;;;;;;5.78;2.60;;;;;;;29.08;30.96;99486.31;5089656;28;20023;-29
2022/05/22 08:53:19;;;;;;;6.10;1.50;;;;;;;29.31;28.95;99482.91;5107953;28;20035;-31
2022/05/22 08:58:57;;;;;;;5.05;1.80;;;;;;;29.76;29.99;99465.81;5107953;28;20042;-32
2022/05/22 09:01:50;;;;;;;4.18;1.80;;;;;;;29.83;29.34;99454.97;5107626;28;20047;-30
2022/05/22 09:04:31;;;;;;;5.40;1.77;;;;;;;29.44;29.35;99451.41;5106531;28;20159;-32
2022/05/22 09:07:06;;;;;;;6.43;1.70;;;;;;;29.22;29.80;99458.41;5089128;28;20015;-32
2022/05/22 09:09:37;;;;;;;3.38;1.70;;;;;;;29.34;30.17;99452.78;5107645;28;20039;-30
2022/05/22 09:12:21;;;;;;;4.40;1.75;;;;;;;29.69;29.53;99479.41;5088895;28;20054;-31
2022/05/22 09:15:12;;;;;;;3.47;1.75;;;;;;;29.06;29.14;99450.19;5089076;28;20035;-29
2022/05/22 09:17:50;;;;;;;2.83;1.50;;;;;;;28.64;26.02;99450.78;5106129;28;20054;-28
2022/05/22 09:20:22;;;;;;;6.60;1.67;;;;;;;28.24;26.14;99447.03;5088989;28;20075;-37
2022/05/22 09:22:59;;;;;;;5.78;1.52;;;;;;;28.49;26.45;99454.31;5089007;28;20384;-29
2022/05/22 09:25:43;;;;;;;7.15;1.63;;;;;;;28.90;25.75;99452.97;5107369;28;20063;-30
2022/05/22 09:28:20;;;;;;;4.60;1.40;;;;;;;28.64;26.67;99445.28;5107573;28;20031;-32
2022/05/22 09:30:57;;;;;;;5.72;1.48;;;;;;;28.74;24.80;99461.22;5106902;28;20027;-31
2022/05/22 09:33:34;;;;;;;11.27;3.40;;;;;;;28.45;25.30;99449.53;5106180;28;20024;-29
2022/05/22 09:36:31;;;;;;;4.20;1.17;;;;;;;28.38;25.45;99424.69;5088949;28;20114;-29
2022/05/22 09:39:21;;;;;;;8.70;2.25;;;;;;;28.43;26.33;99462.78;5088750;28;20071;-30
2022/05/22 09:41:53;;;;;;;3.42;1.30;;;;;;;28.73;25.03;99459.63;5106084;28;20043;-29
2022/05/22 09:44:21;;;;;;;3.70;1.25;;;;;;;28.94;24.70;99455.78;5107026;28;20479;-29
2022/05/22 09:47:09;;;;;;;3.15;1.20;;;;;;;28.93;24.54;99456.94;5106575;28;20116;-29
2022/05/22 09:49:38;;;;;;;3.60;1.15;;;;;;;29.35;25.91;99451.63;5105338;28;20043;-32
2022/05/22 09:52:09;;;;;;;3.05;1.38;;;;;;;29.50;24.65;99438.97;5107633;28;20035;-29
2022/05/22 09:54:34;;;;;;;2.88;1.10;;;;;;;29.86;24.73;99453.44;5105394;28;20671;-34
2022/05/22 09:57:29;;;;;;;3.42;1.30;;;;;;;29.83;25.93;99451.41;5107201;28;20028;-32
2022/05/22 10:00:07;;;;;;;4.45;1.23;;;;;;;30.10;24.82;99418.50;5099261;28;20039;-31
2022/05/22 10:02:51;;;;;;;4.03;1.40;;;;;;;29.87;27.45;99443.25;5112058;28;20023;-30
2022/05/22 10:05:35;;;;;;;4.70;1.60;;;;;;;30.04;26.61;99437.28;5113656;28;20155;-32
2022/05/22 10:08:12;;;;;;;2.50;1.40;;;;;;;30.46;26.60;99425.44;5113649;28;20023;-30
2022/05/22 10:11:01;;;;;;;4.20;1.50;;;;;;;30.48;26.67;99431.38;5112321;28;20088;-29
2022/05/22 10:13:50;;;;;;;3.42;1.25;;;;;;;29.98;25.42;99433.25;5113519;28;20035;-29
2022/05/22 10:16:18;;;;;;;2.95;1.33;;;;;;;29.76;24.64;99437.56;5113287;28;20479;-33
2022/05/22 10:19:01;;;;;;;4.72;1.40;;;;;;;29.80;25.52;99443.91;5112858;28;20024;-33
2022/05/22 10:21:36;;;;;;;5.70;1.40;;;;;;;30.01;24.75;99438.00;5111882;28;20031;-29
2022/05/22 10:24:26;;;;;;;4.30;1.75;;;;;;;29.36;25.16;99435.94;5111912;28;20024;-29
2022/05/22 10:27:10;;;;;;;3.80;1.30;;;;;;;28.97;26.42;99430.38;5112920;28;20110;-32
2022/05/22 10:29:50;;;;;;;5.28;1.50;;;;;;;29.05;27.52;99429.38;5113095;28;20038;-31
2022/05/22 10:32:44;;;;;;;4.85;1.63;;;;;;;29.07;26.61;99440.78;5094932;28;20103;-31
2022/05/22 10:35:33;;;;;;;6.88;1.50;;;;;;;28.74;25.95;99442.00;5109394;28;20668;-29
2022/05/22 10:38:10;;;;;;;4.18;1.52;;;;;;;28.96;27.18;99450.75;5111958;28;20530;-29
2022/05/22 10:43:29;;;;;;;5.10;1.50;;;;;;;29.20;26.42;99439.53;5112800;28;20092;-30
2022/05/22 10:45:55;;;;;;;4.72;1.25;;;;;;;29.38;27.06;99415.22;5112846;28;20043;-34
2022/05/22 10:48:23;;;;;;;6.15;1.63;;;;;;;29.37;27.94;99432.03;5113190;28;20027;-31
2022/05/22 10:50:58;;;;;;;5.43;1.50;;;;;;;29.50;27.38;99408.75;5112914;28;20038;-31
2022/05/22 10:53:40;;;;;;;6.30;1.27;;;;;;;29.74;27.62;99426.13;5094364;28;20035;-31
2022/05/22 10:56:13;;;;;;;4.25;1.83;;;;;;;29.40;26.56;99436.78;5112982;28;20451;-33
2022/05/22 10:58:39;;;;;;;4.88;1.70;;;;;;;29.09;27.32;99400.03;5112997;28;20030;-32
2022/05/22 11:01:15;;;;;;;5.97;1.40;;;;;;;28.99;27.70;99389.63;5094710;28;20058;-29
2022/05/22 11:03:40;;;;;;;3.40;1.58;;;;;;;29.37;27.38;99393.59;5094490;28;20978;-30
2022/05/22 11:06:19;;;;;;;3.08;1.40;;;;;;;29.45;27.30;99403.56;5112920;28;20024;-34
2022/05/22 11:08:51;;;;;;;6.85;1.70;;;;;;;29.23;24.83;99385.84;5112324;28;20407;-29
2022/05/22 11:11:24;;;;;;;2.92;1.30;;;;;;;29.36;25.90;99392.00;5111248;28;20020;-30
2022/05/22 11:13:53;;;;;;;5.18;1.60;;;;;;;29.38;25.61;99406.16;5091014;28;20734;-33
2022/05/22 11:16:26;;;;;;;5.63;1.33;;;;;;;29.01;25.68;99387.31;5091402;28;20118;-33
2022/05/22 11:19:06;;;;;;;3.70;1.30;;;;;;;28.76;24.74;99393.06;5091002;28;20054;-33
2022/05/22 11:21:37;;;;;;;3.38;1.65;;;;;;;29.03;25.97;99401.47;5091196;28;20126;-31
2022/05/22 11:24:17;;;;;;;4.25;1.10;;;;;;;29.11;25.28;99380.50;5090986;28;20089;-31
2022/05/22 11:26:46;;;;;;;6.43;1.30;;;;;;;29.21;25.07;99397.19;5090823;28;20023;-31
2022/05/22 11:29:17;;;;;;;3.67;1.50;;;;;;;29.10;25.44;99382.44;5109379;28;20622;-32
2022/05/22 11:31:51;;;;;;;4.40;1.50;;;;;;;29.29;23.71;99389.13;5107638;28;20034;-30
2022/05/22 11:34:40;;;;;;;3.10;1.50;;;;;;;29.75;24.79;99370.00;5109347;28;20036;-29
2022/05/22 11:37:12;;;;;;;3.78;1.38;;;;;;;30.03;24.10;99384.25;5107535;28;20024;-33
2022/05/22 11:39:57;;;;;;;2.22;1.35;;;;;;;29.76;24.58;99366.09;5108971;28;20052;-29
2022/05/22 11:42:38;;;;;;;3.15;1.50;;;;;;;30.08;25.33;99379.59;5109278;28;20031;-31
2022/05/22 11:45:32;;;;;;;2.88;1.23;;;;;;;30.21;23.07;99378.25;5108180;28;20123;-34
2022/05/22 11:48:35;;;;;;;3.65;1.50;;;;;;;30.48;24.69;99368.09;5109059;28;20510;-30
2022/05/22 11:51:18;;;;;;;3.15;1.45;;;;;;;31.18;23.80;99371.41;5005962;28;20036;-29
2022/05/22 11:54:03;;;;;;;1.63;1.33;;;;;;;31.65;22.26;99367.28;5099935;28;20510;-33
2022/05/22 11:56:50;;;;;;;2.95;1.40;;;;;;;32.03;22.78;99355.03;5108527;28;20168;-32
2022/05/22 11:59:52;;;;;;;2.47;1.52;;;;;;;31.84;23.29;99358.00;5108810;28;20070;-33
2022/05/22 12:02:43;;;;;;;2.65;1.48;;;;;;;31.73;22.07;99360.66;5108561;28;20503;-31
2022/05/22 12:05:09;;;;;;;3.25;1.70;;;;;;;31.56;22.65;99353.78;5108846;28;20035;-33